Impacts METAR Board INFO
IDs:

KEWR - Newark Intl, NJ, US

Updated at: 0507 UTC 18 Feb 2018
Potential Impact None Slight Moderate High
Time17/17Z 17/18Z 17/19Z 17/20Z 17/21Z 17/22Z 17/23Z 18/00Z 18/01Z 18/02Z 18/03Z 18/04Z 18/05Z
VIS10 10 10 10 10 4 2 0.75 0.75 0.75 0.75 0.75 0.75
CIG250 250 38 40 130 10 15 7 5 5 5 5 5
CoverBKNBKNOVCOVCOVCOVCOVCOVCOVCOVCOVCOVCOVC
FltCatVFRVFRVFRVFRVFRMVFRIFRLIFRLIFRLIFRLIFRLIFRLIFR
WX-----------SN-SN-SN BR-SN BR-SN BR-SN BR-SN BR-SN BR
WDir150130130140120800604060404020
WSpd12 9 8 8 11 5 3 4 4 6 3 4 4
WGst16 16 -- -- 15 -- -- -- -- -- -- -- --
Raw hourly METARs
KEWR 171651Z 15012G16KT 10SM FEW045 SCT180 BKN250 03/M07 A3037 RMK AO2 SLP283 T00331072 $
KEWR 171751Z 13009G16KT 10SM SCT032 SCT180 BKN250 02/M05 A3036 RMK AO2 SLP278 T00221050 10039 21039 58014
KEWR 171851Z 13008KT 10SM OVC038 02/M05 A3032 RMK AO2 SLP268 T00221050
KEWR 171951Z 14008KT 10SM OVC040 02/M05 A3031 RMK AO2 SLP264 T00221050
KEWR 172051Z 12011G15KT 10SM SCT040 OVC130 02/M05 A3024 RMK AO2 PRESFR SLP239 VIRGA T00221050 58040
KEWR 172156Z 08005KT 4SM -SN BKN010 OVC032 02/M04 A3025 RMK AO2 P0000 T00221039
KEWR 172304Z VRB03KT 2SM -SN SCT010 BKN015 OVC030 03/M03 A3025 RMK AO2 SFC VIS 3 P0000 T00281028
KEWR 172351Z 06004KT 3/4SM R04R/3500V5000FT -SN BR OVC007 01/M02 A3020 RMK AO2 PRESFR SLP225 931004 P0006 60006 T00061017 10028 20006 58013
KEWR 180051Z 04004KT 3/4SM R04R/4500V5500FT -SN BR OVC005 01/M01 A3017 RMK AO2 SLP214 SNINCR 1/1 P0011 T00061006
KEWR 180151Z 06006KT 3/4SM R04R/6000VP6000FT -SN BR OVC005 01/M01 A3011 RMK AO2 PRESFR SLP194 SNINCR 1/2 P0014 T00061006
KEWR 180251Z 04003KT 3/4SM R04R/P6000FT -SN BR OVC005 01/00 A3007 RMK AO2 SLP183 60029 T00060000 56042
KEWR 180351Z 04004KT 3/4SM R04R/P6000FT -SN BR BKN005 OVC014 01/00 A3005 RMK AO2 SFC VIS 1 1/2 SLP174 P0009 T00060000
KEWR 180451Z 02004KT 3/4SM R04R/P6000FT -SN BR BKN005 OVC030 01/00 A3001 RMK AO2 SFC VIS 1 1/2 SLP162 P0004 T00060000 400391039